Ruby Princess — ZCDY2 — position and weather

sailwx.info

Track history (hours):
 
Tides and Currents Weather Stations Pressure Air Temp Water Temp Dewpoint Dewpoint Depression Visibility Wind Speed Wind Dir Waves Ship Positions

Ruby Princess

Last reported at 2020-Jul-11 03:30 UTC. Time now 2020-Jul-14 12:51 UTC.
Position N 01°16' E 104°06'.

Length 289 m; draft 8.7 m.

Type: Ship. MMSI: 310567000.

Date/timePositionNaut miles runAvg speedWind from/ knotsBaromVisibWave heightAir tempDewpointWater temp
2020-Jul-11 03:30N 01°16' E 104°06'510.6
2020-Jul-11 03:00N 01°17' E 104°11'5 9.8
2020-Jul-11 02:27N 01°18' E 104°17'6 9.4
2020-Jul-11 01:47N 01°21' E 104°22'20 0.8
2020-Jul-10 00:34N 01°38' E 104°33'  
2020-Jul-06 08:08N 14°20' E 120°36'210.6
2020-Jul-06 07:55N 14°21' E 120°38'19 5.5
2020-Jul-06 04:29N 14°32' E 120°54'0 0.0
2020-Jul-06 02:58N 14°32' E 120°54'0 0.0
2020-Jul-06 02:19N 14°32' E 120°54'0 0.0
2020-Jul-06 01:31N 14°32' E 120°54'0 0.0
2020-Jul-05 21:59N 14°32' E 120°54'0 0.0
2020-Jul-05 19:58N 14°32' E 120°54'0 0.0
2020-Jul-05 15:59N 14°32' E 120°54'0 0.1
2020-Jul-05 15:29N 14°32' E 120°54'0 0.0
2020-Jul-05 12:22N 14°32' E 120°54'0 0.0
2020-Jul-05 10:30N 14°32' E 120°54'0 0.0
2020-Jul-05 05:28N 14°32' E 120°54'0 0.0
2020-Jul-05 03:42N 14°32' E 120°54'0 0.0
2020-Jul-05 03:00N 14°32' E 120°54'0 0.0
2020-Jul-05 01:59N 14°32' E 120°54'0 0.0
2020-Jul-04 22:28N 14°32' E 120°54'0 0.0
2020-Jul-04 19:54N 14°32' E 120°54'0 0.0
2020-Jul-04 19:30N 14°32' E 120°54'0 0.0
2020-Jul-04 18:29N 14°32' E 120°54'0 0.0
2020-Jul-04 12:29N 14°32' E 120°54'0 0.0
2020-Jul-04 11:29N 14°32' E 120°54'0 0.0
2020-Jul-04 02:55N 14°33' E 120°54'0 0.0
2020-Jul-04 01:58N 14°33' E 120°54'0 0.0
2020-Jul-03 21:29N 14°33' E 120°54'0 0.0
2020-Jul-03 20:59N 14°33' E 120°54'0 0.0
2020-Jul-03 18:01N 14°33' E 120°54'0 0.0
2020-Jul-03 16:27N 14°33' E 120°54'0 0.0
2020-Jul-03 16:00N 14°33' E 120°54'0 0.0
2020-Jul-03 15:29N 14°33' E 120°54'0 0.0
2020-Jul-03 14:29N 14°33' E 120°54'0 0.0
2020-Jul-03 13:59N 14°33' E 120°54'0 0.0
2020-Jul-03 13:29N 14°33' E 120°54'0 0.0
2020-Jul-03 10:30N 14°33' E 120°54'0 0.0
2020-Jul-03 10:00N 14°33' E 120°54'0 0.0
2020-Jul-03 09:30N 14°33' E 120°54'0 0.0
2020-Jul-03 09:00N 14°33' E 120°54'0 0.0
2020-Jul-03 08:29N 14°33' E 120°54'0 0.0
2020-Jul-03 06:29N 14°33' E 120°54'0 0.0
2020-Jul-03 04:00N 14°33' E 120°54'0 0.0
2020-Jul-03 03:00N 14°33' E 120°54'0 0.0
2020-Jul-03 02:30N 14°33' E 120°54'0 0.0
2020-Jul-02 20:30N 14°33' E 120°54'0 0.0
2020-Jul-02 19:30N 14°33' E 120°54'0 0.0
2020-Jul-02 18:26N 14°33' E 120°54'0 0.0
2020-Jul-02 15:58N 14°33' E 120°54'0 0.0
2020-Jul-02 14:19N 14°33' E 120°54'0 0.0
2020-Jul-02 11:29N 14°33' E 120°54'0 0.0
2020-Jul-02 10:50N 14°33' E 120°54'0 0.0
2020-Jul-02 10:23N 14°33' E 120°54'0 0.0
2020-Jul-02 09:28N 14°33' E 120°54'0 0.0
2020-Jul-02 08:58N 14°33' E 120°54'0 0.0
2020-Jul-02 06:30N 14°33' E 120°54'0 0.0
2020-Jul-02 03:59N 14°33' E 120°54'0 0.0
2020-Jul-02 03:29N 14°33' E 120°54'0 0.0
2020-Jul-02 02:28N 14°33' E 120°54'0 0.0
2020-Jul-02 01:28N 14°33' E 120°54'0 0.0
2020-Jul-01 23:30N 14°33' E 120°54'0 0.0
2020-Jul-01 18:28N 14°33' E 120°54'0 0.0
2020-Jul-01 16:00N 14°33' E 120°54'0 0.0
2020-Jul-01 13:29N 14°33' E 120°54'0 0.0
2020-Jul-01 05:28N 14°33' E 120°54'0 0.0
2020-Jul-01 03:58N 14°33' E 120°54'  
Track history (hours):
 
Tides and Currents Weather Stations Pressure Air Temp Water Temp Dewpoint Dewpoint Depression Visibility Wind Speed Wind Dir Waves Ship Positions

Ruby Princess

Last reported at 2020-Jul-11 03:30 UTC. Time now 2020-Jul-14 12:51 UTC.
Position N 01°16' E 104°06'.

Length 289 m; draft 8.7 m.

Type: Ship. MMSI: 310567000.

Date/timePositionNaut miles runAvg speedWind from/ knotsBaromVisibWave heightAir tempDewpointWater temp
2020-Jul-11 03:30N 01°16' E 104°06'510.6
2020-Jul-11 03:00N 01°17' E 104°11'5 9.8
2020-Jul-11 02:27N 01°18' E 104°17'6 9.4
2020-Jul-11 01:47N 01°21' E 104°22'20 0.8
2020-Jul-10 00:34N 01°38' E 104°33'  
2020-Jul-06 08:08N 14°20' E 120°36'210.6
2020-Jul-06 07:55N 14°21' E 120°38'19 5.5
2020-Jul-06 04:29N 14°32' E 120°54'0 0.0
2020-Jul-06 02:58N 14°32' E 120°54'0 0.0
2020-Jul-06 02:19N 14°32' E 120°54'0 0.0
2020-Jul-06 01:31N 14°32' E 120°54'0 0.0
2020-Jul-05 21:59N 14°32' E 120°54'0 0.0
2020-Jul-05 19:58N 14°32' E 120°54'0 0.0
2020-Jul-05 15:59N 14°32' E 120°54'0 0.1
2020-Jul-05 15:29N 14°32' E 120°54'0 0.0
2020-Jul-05 12:22N 14°32' E 120°54'0 0.0
2020-Jul-05 10:30N 14°32' E 120°54'0 0.0
2020-Jul-05 05:28N 14°32' E 120°54'0 0.0
2020-Jul-05 03:42N 14°32' E 120°54'0 0.0
2020-Jul-05 03:00N 14°32' E 120°54'0 0.0
2020-Jul-05 01:59N 14°32' E 120°54'0 0.0
2020-Jul-04 22:28N 14°32' E 120°54'0 0.0
2020-Jul-04 19:54N 14°32' E 120°54'0 0.0
2020-Jul-04 19:30N 14°32' E 120°54'0 0.0
2020-Jul-04 18:29N 14°32' E 120°54'0 0.0
2020-Jul-04 12:29N 14°32' E 120°54'0 0.0
2020-Jul-04 11:29N 14°32' E 120°54'0 0.0
2020-Jul-04 02:55N 14°33' E 120°54'0 0.0
2020-Jul-04 01:58N 14°33' E 120°54'0 0.0
2020-Jul-03 21:29N 14°33' E 120°54'0 0.0
2020-Jul-03 20:59N 14°33' E 120°54'0 0.0
2020-Jul-03 18:01N 14°33' E 120°54'0 0.0
2020-Jul-03 16:27N 14°33' E 120°54'0 0.0
2020-Jul-03 16:00N 14°33' E 120°54'0 0.0
2020-Jul-03 15:29N 14°33' E 120°54'0 0.0
2020-Jul-03 14:29N 14°33' E 120°54'0 0.0
2020-Jul-03 13:59N 14°33' E 120°54'0 0.0
2020-Jul-03 13:29N 14°33' E 120°54'0 0.0
2020-Jul-03 10:30N 14°33' E 120°54'0 0.0
2020-Jul-03 10:00N 14°33' E 120°54'0 0.0
2020-Jul-03 09:30N 14°33' E 120°54'0 0.0
2020-Jul-03 09:00N 14°33' E 120°54'0 0.0
2020-Jul-03 08:29N 14°33' E 120°54'0 0.0
2020-Jul-03 06:29N 14°33' E 120°54'0 0.0
2020-Jul-03 04:00N 14°33' E 120°54'0 0.0
2020-Jul-03 03:00N 14°33' E 120°54'0 0.0
2020-Jul-03 02:30N 14°33' E 120°54'0 0.0
2020-Jul-02 20:30N 14°33' E 120°54'0 0.0
2020-Jul-02 19:30N 14°33' E 120°54'0 0.0
2020-Jul-02 18:26N 14°33' E 120°54'0 0.0
2020-Jul-02 15:58N 14°33' E 120°54'0 0.0
2020-Jul-02 14:19N 14°33' E 120°54'0 0.0
2020-Jul-02 11:29N 14°33' E 120°54'0 0.0
2020-Jul-02 10:50N 14°33' E 120°54'0 0.0
2020-Jul-02 10:23N 14°33' E 120°54'0 0.0
2020-Jul-02 09:28N 14°33' E 120°54'0 0.0
2020-Jul-02 08:58N 14°33' E 120°54'0 0.0
2020-Jul-02 06:30N 14°33' E 120°54'0 0.0
2020-Jul-02 03:59N 14°33' E 120°54'0 0.0
2020-Jul-02 03:29N 14°33' E 120°54'0 0.0
2020-Jul-02 02:28N 14°33' E 120°54'0 0.0
2020-Jul-02 01:28N 14°33' E 120°54'0 0.0
2020-Jul-01 23:30N 14°33' E 120°54'0 0.0
2020-Jul-01 18:28N 14°33' E 120°54'0 0.0
2020-Jul-01 16:00N 14°33' E 120°54'0 0.0
2020-Jul-01 13:29N 14°33' E 120°54'0 0.0
2020-Jul-01 05:28N 14°33' E 120°54'0 0.0
2020-Jul-01 03:58N 14°33' E 120°54'  

Dump ship's entire track history